FLIGHT INFORMATION
Alaska Airlines

ASA815

At Arrival Gate

KPDX
 PHOG
DATE: 2020-06-30
GATE:  -
GATE DEPARTURE: 20:46
TAKEOFF: 20:55
DATE: 2020-07-01
GATE:  -
LANDING: 02:22
GATE ARRIVAL: 02:28
FLIGHT DATA
Crew: RYAN SYFERD
Speed: 475 kts Altitude: 36000 ft
Stage Length: 2226 nm
Route: 
Block Time: 5.7 Flight Time: 5.5
Fuel Used: 31487 LB
TRACK DATA
50000 FT1000 KTAltitudeSpeed
AIRCRAFT INFORMATION
Aircraft Type: B738SSW
Registration: N584AS
SELCAL: JKDR MSN/LN: 35682 / 2365
Operator: ALASKA AIRLINES
Flights: 13 Block Time: 46.7 Flight Time: 43.7
Fuel Used: 248373 LB
  • DEPARTURE INFORMATION
    Date: 2020-06-30
    Airport: KPDX
    Gate:  -
    Gate Departure: 20:46
    Takeoff: 20:55
    ARRIVAL INFORMATION
    Date: 2020-07-01
    Airport: PHOG
    Gate:  -
    Landing: 02:22
    Gate Arrival: 02:28
  • FLIGHT DATA
    Crew: RYAN SYFERD
    Speed: 475 kts Altitude: 36000 ft
    Stage Length: 1202 nm
    Route: 
    Block Time: 5.7 Flight Time: 5.5
    Fuel Used: 31487 LB
  • AIRCRAFT INFORMATION
    Aircraft Type: B738SSW
    Registration: N584AS
    SELCAL: JKDR MSN/LN: 35682 / 2365
    Operator: Alaska Airlines
    Flights: 13 Block Time: 46.7 Flight Time: 43.7
    Fuel Used: 248373 LB

DATALINK LOG | Newest first | Current as of: 2020-08-11 09:43:26
LABEL SEQUENCE CONTENT Dn/Up
QD302902:28 10.4▼ Dn
QC242302:22▼ Dn
2U1551PHOG 302254Z 05017G25KT 10SM CLR 33/18 A2995 RMK AO2 PK WND 05028/2234 SLP148 T03280178▲ Up
5U0856PHKO 010334Z 21010KT 10SM FEW030 BKN050 30/20 A2995▲ Up
5U0856PHOG 010334Z 05016G25KT 10SM FEW030 SCT050 33/18 A2995▲ Up
2S3533PHOG▼ Dn
5S3533PHOG PHKO▼ Dn
QB575920:55▼ Dn
QA485020:46 41.9▼ Dn
Q01416[LINK ACK]▲ Up
Q01416[LINK TEST]▼ Dn


AIRCRAFT HISTORY
FLIGHT DATE FLIGHT NO. ORIGIN DESTINATION ROUTE BLOCK TIME FLIGHT TIME FUEL USED (LB) PILOT
2020-07-28ASA292KPDX KPHX KPDX KOATA NEERO WINEN CORKR NAVHO DRK MAIER KPHX2.52.311876Ryan Syferd
2020-07-14ASA539KSAN KPDX KSAN WNFLD KERNL GYWNN PADRZ HFMNN CHKNN RIDDL LANDO EHF SHIMR LKV BTG KSEA2.32.112701Michael Roth
2020-07-13ASA818PHOG KSAN PHOG BARBY SARDS BONUS DEREC BYROW FITES 22N50 25N41 27N35 29N30 ELKEY SXC KSAN5.35.129746Ryan Syferd
2020-06-30ASA815KPDX PHOG 5.75.531487Ryan Syferd
2020-06-30ASA194PANC KPDX PANC TED JOH ALJNB HUMPY WOXOX LAIRE BKA DUGGS YYJ CFQWB ORCUS SEA KPDX3.43.216377Ryan Syferd
2020-06-29ASA111PHNL PANC PHNL HNL CKH GRITL BAMBO JOELE LARYN ATINE BERLE ZIGIE 35N58 46N60 50N58 55N55 HOM PANC6.15.830529-HIDDEN-
2020-06-06ASA606PHKO PHNL 10.65097Steven Perry
2020-05-29ASA815KSEA PHKO KSEA SEA ELMAA HQM SEDAR ZANNG ZAGER ZINNO ZEMOM ZOULU APACK UPP PHKO6.4632237Ryan Syferd
2020-05-28ASA56KATL KSEA KATL VUZ ARG SGF BUM HCT SNY CYS LAR CKW PIH DNJ BEAMO PDT KSEA5.14.725200Ryan Syferd
2020-03-24ASA211KMSY KATL 1.51.28637-HIDDEN-
2020-03-20ASA320KCRP KMSY 2.31.911483Charles Harris
2020-02-27ASA519KDFW KCRP 1.317311Steven Perry
2020-02-04ASA5847KBOS KDFW 4.94.625692Pete Locascio